sensor_id;sensor_type;location;lat;lon;timestamp;pressure;altitude;pressure_sealevel;temperature;humidity
48668;BME280;34453;52.198;5.004;2023-05-02T00:01:36;102198.00;;;10.71;100.00
48668;BME280;34453;52.198;5.004;2023-05-02T00:04:01;102199.59;;;10.74;100.00
48668;BME280;34453;52.198;5.004;2023-05-02T00:06:29;102203.03;;;10.74;100.00
48668;BME280;34453;52.198;5.004;2023-05-02T00:08:56;102207.56;;;10.72;100.00
48668;BME280;34453;52.198;5.004;2023-05-02T00:11:21;102205.03;;;10.71;100.00
48668;BME280;34453;52.198;5.004;2023-05-02T00:13:48;102214.97;;;10.78;100.00
48668;BME280;34453;52.198;5.004;2023-05-02T00:16:14;102205.53;;;10.76;100.00
48668;BME280;34453;52.198;5.004;2023-05-02T00:18:39;102214.75;;;10.82;100.00
48668;BME280;34453;52.198;5.004;2023-05-02T00:21:05;102220.63;;;10.85;100.00
48668;BME280;34453;52.198;5.004;2023-05-02T00:23:31;102219.75;;;10.85;100.00
48668;BME280;34453;52.198;5.004;2023-05-02T00:25:56;102222.66;;;10.93;100.00
48668;BME280;34453;52.198;5.004;2023-05-02T00:28:22;102222.91;;;10.90;100.00
48668;BME280;34453;52.198;5.004;2023-05-02T00:30:47;102226.25;;;10.92;100.00
48668;BME280;34453;52.198;5.004;2023-05-02T00:33:13;102223.00;;;10.88;100.00
48668;BME280;34453;52.198;5.004;2023-05-02T00:35:39;102227.19;;;10.91;100.00
48668;BME280;34453;52.198;5.004;2023-05-02T00:38:05;102226.84;;;10.95;100.00
48668;BME280;34453;52.198;5.004;2023-05-02T00:40:44;102224.34;;;10.94;100.00
48668;BME280;34453;52.198;5.004;2023-05-02T00:43:10;102215.03;;;10.90;100.00
48668;BME280;34453;52.198;5.004;2023-05-02T00:45:37;102215.97;;;10.89;100.00
48668;BME280;34453;52.198;5.004;2023-05-02T00:48:05;102225.53;;;10.90;100.00
48668;BME280;34453;52.198;5.004;2023-05-02T00:50:33;102231.69;;;10.89;100.00
48668;BME280;34453;52.198;5.004;2023-05-02T00:52:59;102233.56;;;10.87;100.00
48668;BME280;34453;52.198;5.004;2023-05-02T00:55:26;102231.09;;;10.85;100.00
48668;BME280;34453;52.198;5.004;2023-05-02T00:57:51;102248.34;;;10.88;100.00
48668;BME280;34453;52.198;5.004;2023-05-02T01:00:17;102258.59;;;10.91;100.00
48668;BME280;34453;52.198;5.004;2023-05-02T01:02:59;102252.34;;;10.81;100.00
48668;BME280;34453;52.198;5.004;2023-05-02T01:05:43;102251.16;;;10.85;100.00
48668;BME280;34453;52.198;5.004;2023-05-02T01:08:20;102259.97;;;10.84;100.00
48668;BME280;34453;52.198;5.004;2023-05-02T01:11:19;102260.41;;;10.77;100.00
48668;BME280;34453;52.198;5.004;2023-05-02T01:13:47;102260.81;;;10.71;100.00
48668;BME280;34453;52.198;5.004;2023-05-02T01:16:13;102260.09;;;10.69;100.00
48668;BME280;34453;52.198;5.004;2023-05-02T01:18:42;102268.91;;;10.68;100.00
48668;BME280;34453;52.198;5.004;2023-05-02T01:21:10;102265.47;;;10.68;100.00
48668;BME280;34453;52.198;5.004;2023-05-02T01:26:50;102270.16;;;10.63;100.00
48668;BME280;34453;52.198;5.004;2023-05-02T01:29:18;102261.28;;;10.65;100.00
48668;BME280;34453;52.198;5.004;2023-05-02T01:31:47;102269.03;;;10.54;100.00
48668;BME280;34453;52.198;5.004;2023-05-02T01:34:15;102270.19;;;10.50;100.00
48668;BME280;34453;52.198;5.004;2023-05-02T01:36:44;102267.56;;;10.50;100.00
48668;BME280;34453;52.198;5.004;2023-05-02T01:39:14;102273.97;;;10.46;100.00
48668;BME280;34453;52.198;5.004;2023-05-02T01:41:43;102285.56;;;10.42;100.00
48668;BME280;34453;52.198;5.004;2023-05-02T01:44:10;102282.53;;;10.35;100.00
48668;BME280;34453;52.198;5.004;2023-05-02T01:46:37;102287.75;;;10.35;100.00
48668;BME280;34453;52.198;5.004;2023-05-02T01:49:06;102284.50;;;10.31;100.00
48668;BME280;34453;52.198;5.004;2023-05-02T01:51:34;102285.97;;;10.23;100.00
48668;BME280;34453;52.198;5.004;2023-05-02T01:54:03;102295.16;;;10.28;100.00
48668;BME280;34453;52.198;5.004;2023-05-02T01:56:31;102300.06;;;10.20;100.00
48668;BME280;34453;52.198;5.004;2023-05-02T01:58:58;102293.78;;;10.10;100.00
48668;BME280;34453;52.198;5.004;2023-05-02T02:01:25;102293.06;;;10.08;100.00
48668;BME280;34453;52.198;5.004;2023-05-02T02:03:56;102305.28;;;10.07;100.00
48668;BME280;34453;52.198;5.004;2023-05-02T02:06:23;102318.06;;;10.12;100.00
48668;BME280;34453;52.198;5.004;2023-05-02T02:08:49;102301.09;;;10.05;100.00
48668;BME280;34453;52.198;5.004;2023-05-02T02:11:17;102307.47;;;10.01;100.00
48668;BME280;34453;52.198;5.004;2023-05-02T02:13:54;102328.50;;;9.99;100.00
48668;BME280;34453;52.198;5.004;2023-05-02T02:16:27;102332.75;;;10.00;100.00
48668;BME280;34453;52.198;5.004;2023-05-02T02:18:55;102328.63;;;10.10;100.00
48668;BME280;34453;52.198;5.004;2023-05-02T02:21:22;102330.28;;;10.11;100.00
48668;BME280;34453;52.198;5.004;2023-05-02T02:23:53;102321.28;;;10.03;100.00
48668;BME280;34453;52.198;5.004;2023-05-02T02:26:20;102321.16;;;10.04;100.00
48668;BME280;34453;52.198;5.004;2023-05-02T02:28:46;102330.50;;;10.08;100.00
48668;BME280;34453;52.198;5.004;2023-05-02T02:31:12;102325.47;;;10.05;100.00
48668;BME280;34453;52.198;5.004;2023-05-02T02:33:38;102332.59;;;10.03;100.00
48668;BME280;34453;52.198;5.004;2023-05-02T02:36:14;102339.03;;;9.98;100.00
48668;BME280;34453;52.198;5.004;2023-05-02T02:38:48;102340.59;;;10.00;100.00
48668;BME280;34453;52.198;5.004;2023-05-02T02:41:22;102336.72;;;9.93;100.00
48668;BME280;34453;52.198;5.004;2023-05-02T02:44:04;102337.03;;;9.88;100.00
48668;BME280;34453;52.198;5.004;2023-05-02T02:49:14;102344.00;;;9.75;100.00
48668;BME280;34453;52.198;5.004;2023-05-02T02:51:52;102346.31;;;9.80;100.00
48668;BME280;34453;52.198;5.004;2023-05-02T02:54:23;102359.47;;;9.78;100.00
48668;BME280;34453;52.198;5.004;2023-05-02T02:57:14;102350.94;;;9.89;100.00
48668;BME280;34453;52.198;5.004;2023-05-02T02:59:50;102353.53;;;9.89;100.00
48668;BME280;34453;52.198;5.004;2023-05-02T03:02:18;102356.38;;;9.86;100.00
48668;BME280;34453;52.198;5.004;2023-05-02T03:04:48;102364.50;;;9.81;100.00
48668;BME280;34453;52.198;5.004;2023-05-02T03:07:15;102363.25;;;9.74;100.00
48668;BME280;34453;52.198;5.004;2023-05-02T03:09:45;102364.91;;;9.75;100.00
48668;BME280;34453;52.198;5.004;2023-05-02T03:12:11;102369.16;;;9.63;100.00
48668;BME280;34453;52.198;5.004;2023-05-02T03:14:37;102368.50;;;9.60;100.00
48668;BME280;34453;52.198;5.004;2023-05-02T03:17:03;102367.56;;;9.61;100.00
48668;BME280;34453;52.198;5.004;2023-05-02T03:19:29;102378.19;;;9.58;100.00
48668;BME280;34453;52.198;5.004;2023-05-02T03:21:55;102385.69;;;9.49;100.00
48668;BME280;34453;52.198;5.004;2023-05-02T03:24:21;102396.97;;;9.50;100.00
48668;BME280;34453;52.198;5.004;2023-05-02T03:26:46;102399.03;;;9.45;100.00
48668;BME280;34453;52.198;5.004;2023-05-02T03:29:13;102392.69;;;9.49;100.00
48668;BME280;34453;52.198;5.004;2023-05-02T03:31:38;102399.97;;;9.44;100.00
48668;BME280;34453;52.198;5.004;2023-05-02T03:34:04;102400.72;;;9.46;100.00
48668;BME280;34453;52.198;5.004;2023-05-02T03:36:29;102403.03;;;9.50;100.00
48668;BME280;34453;52.198;5.004;2023-05-02T03:38:55;102400.44;;;9.50;100.00
48668;BME280;34453;52.198;5.004;2023-05-02T03:41:21;102400.22;;;9.53;100.00
48668;BME280;34453;52.198;5.004;2023-05-02T03:43:47;102406.19;;;9.55;100.00
48668;BME280;34453;52.198;5.004;2023-05-02T03:46:12;102398.25;;;9.57;100.00
48668;BME280;34453;52.198;5.004;2023-05-02T03:48:37;102408.63;;;9.59;100.00
48668;BME280;34453;52.198;5.004;2023-05-02T03:51:04;102411.63;;;9.52;100.00
48668;BME280;34453;52.198;5.004;2023-05-02T03:53:31;102409.59;;;9.43;100.00
48668;BME280;34453;52.198;5.004;2023-05-02T03:55:57;102414.22;;;9.38;100.00
48668;BME280;34453;52.198;5.004;2023-05-02T03:58:23;102416.00;;;9.38;100.00
48668;BME280;34453;52.198;5.004;2023-05-02T04:00:49;102422.75;;;9.27;100.00
48668;BME280;34453;52.198;5.004;2023-05-02T04:03:14;102420.44;;;9.23;100.00
48668;BME280;34453;52.198;5.004;2023-05-02T04:05:40;102414.91;;;9.27;100.00
48668;BME280;34453;52.198;5.004;2023-05-02T04:08:05;102420.78;;;9.31;100.00
48668;BME280;34453;52.198;5.004;2023-05-02T04:10:31;102425.25;;;9.29;100.00
48668;BME280;34453;52.198;5.004;2023-05-02T04:12:56;102434.66;;;9.31;100.00
48668;BME280;34453;52.198;5.004;2023-05-02T04:15:22;102439.06;;;9.31;100.00
48668;BME280;34453;52.198;5.004;2023-05-02T04:17:47;102438.22;;;9.30;100.00
48668;BME280;34453;52.198;5.004;2023-05-02T04:20:13;102446.16;;;9.29;100.00
48668;BME280;34453;52.198;5.004;2023-05-02T04:22:39;102451.56;;;9.26;100.00
48668;BME280;34453;52.198;5.004;2023-05-02T04:25:05;102442.78;;;9.12;100.00
48668;BME280;34453;52.198;5.004;2023-05-02T04:27:31;102448.78;;;9.15;100.00
48668;BME280;34453;52.198;5.004;2023-05-02T04:29:57;102454.19;;;9.11;100.00
48668;BME280;34453;52.198;5.004;2023-05-02T04:32:22;102458.66;;;9.09;100.00
48668;BME280;34453;52.198;5.004;2023-05-02T04:34:48;102462.03;;;9.11;100.00
48668;BME280;34453;52.198;5.004;2023-05-02T04:37:14;102468.63;;;9.17;100.00
48668;BME280;34453;52.198;5.004;2023-05-02T04:39:39;102471.16;;;9.19;100.00
48668;BME280;34453;52.198;5.004;2023-05-02T04:42:04;102477.56;;;9.13;100.00
48668;BME280;34453;52.198;5.004;2023-05-02T04:44:30;102472.63;;;9.08;100.00
48668;BME280;34453;52.198;5.004;2023-05-02T04:46:55;102485.69;;;9.08;100.00
48668;BME280;34453;52.198;5.004;2023-05-02T04:49:21;102495.97;;;9.11;100.00
48668;BME280;34453;52.198;5.004;2023-05-02T04:51:46;102504.91;;;9.07;100.00
48668;BME280;34453;52.198;5.004;2023-05-02T04:54:11;102504.72;;;9.10;100.00
48668;BME280;34453;52.198;5.004;2023-05-02T04:56:37;102504.91;;;9.07;100.00
48668;BME280;34453;52.198;5.004;2023-05-02T04:59:02;102500.88;;;9.02;100.00
48668;BME280;34453;52.198;5.004;2023-05-02T05:01:28;102506.09;;;9.02;100.00
48668;BME280;34453;52.198;5.004;2023-05-02T05:03:54;102517.03;;;9.08;100.00
48668;BME280;34453;52.198;5.004;2023-05-02T05:06:20;102519.94;;;9.18;100.00
48668;BME280;34453;52.198;5.004;2023-05-02T05:08:46;102519.34;;;9.13;100.00
48668;BME280;34453;52.198;5.004;2023-05-02T05:11:11;102518.91;;;9.21;100.00
48668;BME280;34453;52.198;5.004;2023-05-02T05:13:37;102528.41;;;9.22;100.00
48668;BME280;34453;52.198;5.004;2023-05-02T05:16:03;102525.81;;;9.22;100.00
48668;BME280;34453;52.198;5.004;2023-05-02T05:18:29;102537.94;;;9.23;100.00
48668;BME280;34453;52.198;5.004;2023-05-02T05:20:54;102527.19;;;9.13;100.00
48668;BME280;34453;52.198;5.004;2023-05-02T05:23:19;102526.91;;;9.18;100.00
48668;BME280;34453;52.198;5.004;2023-05-02T05:25:45;102532.13;;;9.18;100.00
48668;BME280;34453;52.198;5.004;2023-05-02T05:28:10;102538.66;;;9.10;100.00
48668;BME280;34453;52.198;5.004;2023-05-02T05:30:36;102534.00;;;9.16;100.00
48668;BME280;34453;52.198;5.004;2023-05-02T05:33:02;102527.31;;;9.11;100.00
48668;BME280;34453;52.198;5.004;2023-05-02T05:35:27;102530.81;;;9.10;100.00
48668;BME280;34453;52.198;5.004;2023-05-02T05:37:53;102536.81;;;9.12;100.00
48668;BME280;34453;52.198;5.004;2023-05-02T05:40:18;102544.09;;;9.22;100.00
48668;BME280;34453;52.198;5.004;2023-05-02T05:42:45;102557.69;;;9.27;100.00
48668;BME280;34453;52.198;5.004;2023-05-02T05:45:10;102547.84;;;9.32;100.00
48668;BME280;34453;52.198;5.004;2023-05-02T05:47:36;102555.69;;;9.32;100.00
48668;BME280;34453;52.198;5.004;2023-05-02T05:50:02;102551.84;;;9.38;100.00
48668;BME280;34453;52.198;5.004;2023-05-02T05:52:27;102561.09;;;9.43;100.00
48668;BME280;34453;52.198;5.004;2023-05-02T05:54:53;102561.00;;;9.45;100.00
48668;BME280;34453;52.198;5.004;2023-05-02T05:57:22;102564.28;;;9.48;100.00
48668;BME280;34453;52.198;5.004;2023-05-02T05:59:48;102578.38;;;9.46;100.00
48668;BME280;34453;52.198;5.004;2023-05-02T06:02:13;102568.75;;;9.46;100.00
48668;BME280;34453;52.198;5.004;2023-05-02T06:04:39;102577.91;;;9.53;100.00
48668;BME280;34453;52.198;5.004;2023-05-02T06:07:05;102587.16;;;9.59;100.00
48668;BME280;34453;52.198;5.004;2023-05-02T06:09:30;102591.06;;;9.66;100.00
48668;BME280;34453;52.198;5.004;2023-05-02T06:11:55;102582.59;;;9.77;100.00
48668;BME280;34453;52.198;5.004;2023-05-02T06:14:21;102598.81;;;9.82;100.00
48668;BME280;34453;52.198;5.004;2023-05-02T06:16:46;102598.72;;;9.98;100.00
48668;BME280;34453;52.198;5.004;2023-05-02T06:19:12;102605.00;;;9.81;100.00
48668;BME280;34453;52.198;5.004;2023-05-02T06:21:37;102597.63;;;9.88;100.00
48668;BME280;34453;52.198;5.004;2023-05-02T06:24:03;102610.78;;;9.86;100.00
48668;BME280;34453;52.198;5.004;2023-05-02T06:26:29;102612.44;;;9.73;100.00
48668;BME280;34453;52.198;5.004;2023-05-02T06:28:55;102609.91;;;9.71;100.00
48668;BME280;34453;52.198;5.004;2023-05-02T06:31:20;102616.19;;;9.69;100.00
48668;BME280;34453;52.198;5.004;2023-05-02T06:33:46;102611.34;;;9.77;100.00
48668;BME280;34453;52.198;5.004;2023-05-02T06:36:11;102622.53;;;9.79;100.00
48668;BME280;34453;52.198;5.004;2023-05-02T06:38:37;102620.84;;;9.78;100.00
48668;BME280;34453;52.198;5.004;2023-05-02T06:41:02;102623.66;;;9.75;100.00
48668;BME280;34453;52.198;5.004;2023-05-02T06:43:28;102635.91;;;9.74;100.00
48668;BME280;34453;52.198;5.004;2023-05-02T06:45:54;102641.97;;;9.75;100.00
48668;BME280;34453;52.198;5.004;2023-05-02T06:48:20;102655.22;;;9.72;100.00
48668;BME280;34453;52.198;5.004;2023-05-02T06:50:46;102665.63;;;9.58;100.00
48668;BME280;34453;52.198;5.004;2023-05-02T06:53:12;102672.38;;;9.62;100.00
48668;BME280;34453;52.198;5.004;2023-05-02T06:55:38;102681.31;;;9.58;100.00
48668;BME280;34453;52.198;5.004;2023-05-02T06:58:03;102680.75;;;9.52;100.00
48668;BME280;34453;52.198;5.004;2023-05-02T07:00:29;102685.03;;;9.53;100.00
48668;BME280;34453;52.198;5.004;2023-05-02T07:02:55;102680.41;;;9.73;100.00
48668;BME280;34453;52.198;5.004;2023-05-02T07:05:21;102683.41;;;9.81;100.00
48668;BME280;34453;52.198;5.004;2023-05-02T07:07:46;102687.06;;;9.79;100.00
48668;BME280;34453;52.198;5.004;2023-05-02T07:10:12;102685.41;;;9.92;100.00
48668;BME280;34453;52.198;5.004;2023-05-02T07:12:38;102679.53;;;10.03;100.00
48668;BME280;34453;52.198;5.004;2023-05-02T07:15:07;102686.81;;;10.12;100.00
48668;BME280;34453;52.198;5.004;2023-05-02T07:17:32;102685.41;;;10.21;100.00
48668;BME280;34453;52.198;5.004;2023-05-02T07:19:58;102689.41;;;10.26;100.00
48668;BME280;34453;52.198;5.004;2023-05-02T07:22:23;102696.34;;;10.27;100.00
48668;BME280;34453;52.198;5.004;2023-05-02T07:25:00;102698.72;;;10.32;100.00
48668;BME280;34453;52.198;5.004;2023-05-02T07:27:25;102702.91;;;10.34;100.00
48668;BME280;34453;52.198;5.004;2023-05-02T07:29:51;102697.47;;;10.52;100.00
48668;BME280;34453;52.198;5.004;2023-05-02T07:32:16;102699.97;;;10.53;100.00
48668;BME280;34453;52.198;5.004;2023-05-02T07:34:42;102712.31;;;10.51;100.00
48668;BME280;34453;52.198;5.004;2023-05-02T07:37:08;102698.56;;;10.62;100.00
48668;BME280;34453;52.198;5.004;2023-05-02T07:39:33;102700.44;;;10.60;100.00
48668;BME280;34453;52.198;5.004;2023-05-02T07:41:59;102699.41;;;10.63;100.00
48668;BME280;34453;52.198;5.004;2023-05-02T07:44:25;102700.31;;;10.76;100.00
48668;BME280;34453;52.198;5.004;2023-05-02T07:46:51;102695.50;;;10.70;100.00
48668;BME280;34453;52.198;5.004;2023-05-02T07:49:18;102705.91;;;10.84;100.00
48668;BME280;34453;52.198;5.004;2023-05-02T07:51:43;102707.16;;;10.78;100.00
48668;BME280;34453;52.198;5.004;2023-05-02T07:54:16;102708.66;;;10.68;100.00
48668;BME280;34453;52.198;5.004;2023-05-02T07:56:42;102720.28;;;10.50;100.00
48668;BME280;34453;52.198;5.004;2023-05-02T07:59:08;102715.97;;;10.49;100.00
48668;BME280;34453;52.198;5.004;2023-05-02T08:01:34;102716.38;;;10.43;100.00
48668;BME280;34453;52.198;5.004;2023-05-02T08:03:59;102726.19;;;10.39;100.00
48668;BME280;34453;52.198;5.004;2023-05-02T08:06:24;102723.06;;;10.47;100.00
48668;BME280;34453;52.198;5.004;2023-05-02T08:08:50;102732.25;;;10.40;100.00
48668;BME280;34453;52.198;5.004;2023-05-02T08:11:15;102726.44;;;10.49;100.00
48668;BME280;34453;52.198;5.004;2023-05-02T08:13:41;102726.56;;;10.89;100.00
48668;BME280;34453;52.198;5.004;2023-05-02T08:16:06;102730.59;;;11.22;100.00
48668;BME280;34453;52.198;5.004;2023-05-02T08:18:32;102730.09;;;11.29;100.00
48668;BME280;34453;52.198;5.004;2023-05-02T08:20:58;102725.28;;;11.63;100.00
48668;BME280;34453;52.198;5.004;2023-05-02T08:23:23;102728.22;;;11.71;100.00
48668;BME280;34453;52.198;5.004;2023-05-02T08:25:49;102740.16;;;11.62;100.00
48668;BME280;34453;52.198;5.004;2023-05-02T08:28:14;102742.88;;;11.61;100.00
48668;BME280;34453;52.198;5.004;2023-05-02T08:30:40;102744.50;;;11.49;100.00
48668;BME280;34453;52.198;5.004;2023-05-02T08:33:06;102743.00;;;11.32;100.00
48668;BME280;34453;52.198;5.004;2023-05-02T08:35:31;102758.03;;;11.16;100.00
48668;BME280;34453;52.198;5.004;2023-05-02T08:37:56;102752.06;;;11.14;100.00
48668;BME280;34453;52.198;5.004;2023-05-02T08:40:22;102764.88;;;11.04;100.00
48668;BME280;34453;52.198;5.004;2023-05-02T08:42:48;102769.00;;;11.08;100.00
48668;BME280;34453;52.198;5.004;2023-05-02T08:45:13;102769.38;;;11.16;100.00
48668;BME280;34453;52.198;5.004;2023-05-02T08:47:43;102769.28;;;11.45;100.00
48668;BME280;34453;52.198;5.004;2023-05-02T08:50:10;102772.91;;;11.70;100.00
48668;BME280;34453;52.198;5.004;2023-05-02T08:52:37;102766.75;;;11.83;100.00
48668;BME280;34453;52.198;5.004;2023-05-02T08:55:05;102769.44;;;11.82;100.00
48668;BME280;34453;52.198;5.004;2023-05-02T08:57:31;102767.53;;;11.98;100.00
48668;BME280;34453;52.198;5.004;2023-05-02T08:59:57;102775.06;;;12.16;100.00
48668;BME280;34453;52.198;5.004;2023-05-02T09:02:42;102765.63;;;12.00;100.00
48668;BME280;34453;52.198;5.004;2023-05-02T09:05:11;102775.91;;;11.91;100.00
48668;BME280;34453;52.198;5.004;2023-05-02T09:07:47;102776.53;;;11.94;100.00
48668;BME280;34453;52.198;5.004;2023-05-02T09:10:15;102785.72;;;11.87;100.00
48668;BME280;34453;52.198;5.004;2023-05-02T09:12:40;102785.19;;;11.82;100.00
48668;BME280;34453;52.198;5.004;2023-05-02T09:17:43;102790.06;;;11.88;100.00
48668;BME280;34453;52.198;5.004;2023-05-02T09:20:14;102783.69;;;12.31;100.00
48668;BME280;34453;52.198;5.004;2023-05-02T09:22:50;102783.28;;;12.37;100.00
48668;BME280;34453;52.198;5.004;2023-05-02T09:25:16;102804.06;;;12.53;100.00
48668;BME280;34453;52.198;5.004;2023-05-02T09:27:50;102804.91;;;12.40;100.00
48668;BME280;34453;52.198;5.004;2023-05-02T09:30:21;102803.63;;;12.20;100.00
48668;BME280;34453;52.198;5.004;2023-05-02T09:32:48;102805.75;;;12.28;100.00
48668;BME280;34453;52.198;5.004;2023-05-02T09:35:16;102804.47;;;12.34;100.00
48668;BME280;34453;52.198;5.004;2023-05-02T09:37:49;102815.22;;;12.56;100.00
48668;BME280;34453;52.198;5.004;2023-05-02T09:40:15;102814.16;;;12.59;100.00
48668;BME280;34453;52.198;5.004;2023-05-02T09:42:41;102813.50;;;12.68;100.00
48668;BME280;34453;52.198;5.004;2023-05-02T09:45:06;102812.88;;;12.77;100.00
48668;BME280;34453;52.198;5.004;2023-05-02T09:47:32;102812.97;;;12.76;100.00
48668;BME280;34453;52.198;5.004;2023-05-02T09:49:58;102815.41;;;12.66;100.00
48668;BME280;34453;52.198;5.004;2023-05-02T09:52:23;102819.59;;;12.81;100.00
48668;BME280;34453;52.198;5.004;2023-05-02T09:54:49;102826.50;;;12.82;100.00
48668;BME280;34453;52.198;5.004;2023-05-02T09:57:18;102825.47;;;12.72;100.00
48668;BME280;34453;52.198;5.004;2023-05-02T09:59:55;102820.91;;;13.00;100.00
48668;BME280;34453;52.198;5.004;2023-05-02T10:02:20;102822.16;;;13.44;100.00
48668;BME280;34453;52.198;5.004;2023-05-02T10:04:47;102823.25;;;13.41;100.00
48668;BME280;34453;52.198;5.004;2023-05-02T10:07:14;102824.19;;;13.64;100.00
48668;BME280;34453;52.198;5.004;2023-05-02T10:09:43;102828.59;;;13.88;100.00
48668;BME280;34453;52.198;5.004;2023-05-02T10:12:13;102821.00;;;14.07;100.00
48668;BME280;34453;52.198;5.004;2023-05-02T10:14:40;102822.59;;;14.33;100.00
48668;BME280;34453;52.198;5.004;2023-05-02T10:17:19;102827.31;;;14.63;100.00
48668;BME280;34453;52.198;5.004;2023-05-02T10:20:06;102819.06;;;14.67;100.00
48668;BME280;34453;52.198;5.004;2023-05-02T10:22:35;102823.88;;;14.27;100.00
48668;BME280;34453;52.198;5.004;2023-05-02T10:25:02;102832.28;;;14.21;100.00
48668;BME280;34453;52.198;5.004;2023-05-02T10:27:31;102825.78;;;13.78;100.00
48668;BME280;34453;52.198;5.004;2023-05-02T10:29:57;102830.63;;;13.96;100.00
48668;BME280;34453;52.198;5.004;2023-05-02T10:32:26;102832.25;;;14.09;100.00
48668;BME280;34453;52.198;5.004;2023-05-02T10:34:55;102830.50;;;14.33;100.00
48668;BME280;34453;52.198;5.004;2023-05-02T10:37:22;102835.47;;;14.71;100.00
48668;BME280;34453;52.198;5.004;2023-05-02T10:39:49;102832.06;;;15.25;100.00
48668;BME280;34453;52.198;5.004;2023-05-02T10:42:15;102830.88;;;15.07;100.00
48668;BME280;34453;52.198;5.004;2023-05-02T10:44:43;102848.97;;;14.08;100.00
48668;BME280;34453;52.198;5.004;2023-05-02T10:47:25;102847.41;;;13.71;100.00
48668;BME280;34453;52.198;5.004;2023-05-02T10:49:54;102845.22;;;13.64;100.00
48668;BME280;34453;52.198;5.004;2023-05-02T10:52:32;102846.44;;;13.72;100.00
48668;BME280;34453;52.198;5.004;2023-05-02T10:55:20;102849.56;;;14.47;100.00
48668;BME280;34453;52.198;5.004;2023-05-02T11:02:51;102854.72;;;14.71;100.00
48668;BME280;34453;52.198;5.004;2023-05-02T11:05:16;102848.41;;;14.74;100.00
48668;BME280;34453;52.198;5.004;2023-05-02T11:07:42;102852.69;;;14.64;100.00
48668;BME280;34453;52.198;5.004;2023-05-02T11:12:52;102839.41;;;14.99;100.00
48668;BME280;34453;52.198;5.004;2023-05-02T11:18:09;102852.44;;;14.56;100.00
48668;BME280;34453;52.198;5.004;2023-05-02T11:20:37;102861.09;;;14.22;100.00
48668;BME280;34453;52.198;5.004;2023-05-02T11:25:55;102862.53;;;14.26;100.00
48668;BME280;34453;52.198;5.004;2023-05-02T11:31:05;102859.81;;;14.28;100.00
48668;BME280;34453;52.198;5.004;2023-05-02T11:33:33;102857.50;;;15.04;100.00
48668;BME280;34453;52.198;5.004;2023-05-02T11:35:58;102860.72;;;14.96;100.00
48668;BME280;34453;52.198;5.004;2023-05-02T11:38:25;102864.31;;;14.73;100.00
48668;BME280;34453;52.198;5.004;2023-05-02T11:40:57;102854.81;;;14.36;100.00
48668;BME280;34453;52.198;5.004;2023-05-02T11:43:24;102867.13;;;14.00;100.00
48668;BME280;34453;52.198;5.004;2023-05-02T11:45:50;102865.00;;;14.05;100.00
48668;BME280;34453;52.198;5.004;2023-05-02T11:48:17;102856.91;;;14.20;100.00
48668;BME280;34453;52.198;5.004;2023-05-02T11:50:54;102852.13;;;14.94;100.00
48668;BME280;34453;52.198;5.004;2023-05-02T11:53:25;102869.16;;;15.45;100.00
48668;BME280;34453;52.198;5.004;2023-05-02T11:55:52;102875.69;;;14.73;100.00
48668;BME280;34453;52.198;5.004;2023-05-02T11:58:21;102875.69;;;14.96;100.00
48668;BME280;34453;52.198;5.004;2023-05-02T12:00:47;102886.06;;;14.52;100.00
48668;BME280;34453;52.198;5.004;2023-05-02T12:03:28;102883.38;;;14.87;100.00
48668;BME280;34453;52.198;5.004;2023-05-02T12:05:55;102885.28;;;15.08;100.00
48668;BME280;34453;52.198;5.004;2023-05-02T12:08:26;102880.34;;;15.69;100.00
48668;BME280;34453;52.198;5.004;2023-05-02T12:10:55;102887.19;;;15.83;100.00
48668;BME280;34453;52.198;5.004;2023-05-02T12:13:25;102893.34;;;15.61;100.00
48668;BME280;34453;52.198;5.004;2023-05-02T12:15:52;102886.00;;;16.08;100.00
48668;BME280;34453;52.198;5.004;2023-05-02T12:18:20;102884.31;;;16.49;100.00
48668;BME280;34453;52.198;5.004;2023-05-02T12:20:49;102888.75;;;17.01;100.00
48668;BME280;34453;52.198;5.004;2023-05-02T12:23:16;102889.06;;;17.07;100.00
48668;BME280;34453;52.198;5.004;2023-05-02T12:25:41;102894.78;;;17.12;100.00
48668;BME280;34453;52.198;5.004;2023-05-02T12:28:08;102896.88;;;16.36;100.00
48668;BME280;34453;52.198;5.004;2023-05-02T12:30:35;102903.44;;;16.00;100.00
48668;BME280;34453;52.198;5.004;2023-05-02T12:33:03;102906.78;;;16.23;100.00
48668;BME280;34453;52.198;5.004;2023-05-02T12:35:30;102911.78;;;15.84;100.00
48668;BME280;34453;52.198;5.004;2023-05-02T12:38:14;102901.78;;;15.87;100.00
48668;BME280;34453;52.198;5.004;2023-05-02T12:40:50;102910.31;;;16.23;100.00
48668;BME280;34453;52.198;5.004;2023-05-02T12:43:17;102918.56;;;16.61;100.00
48668;BME280;34453;52.198;5.004;2023-05-02T12:45:42;102914.97;;;16.41;100.00
48668;BME280;34453;52.198;5.004;2023-05-02T12:50:43;102916.97;;;16.90;100.00
48668;BME280;34453;52.198;5.004;2023-05-02T12:53:09;102920.13;;;16.84;100.00
48668;BME280;34453;52.198;5.004;2023-05-02T12:55:35;102918.72;;;16.80;100.00
48668;BME280;34453;52.198;5.004;2023-05-02T12:58:01;102912.09;;;16.86;100.00
48668;BME280;34453;52.198;5.004;2023-05-02T13:00:28;102917.28;;;16.76;100.00
48668;BME280;34453;52.198;5.004;2023-05-02T13:02:54;102916.88;;;16.50;100.00
48668;BME280;34453;52.198;5.004;2023-05-02T13:05:19;102921.09;;;16.62;100.00
48668;BME280;34453;52.198;5.004;2023-05-02T13:07:45;102920.91;;;16.75;100.00
48668;BME280;34453;52.198;5.004;2023-05-02T13:10:11;102920.44;;;16.91;100.00
48668;BME280;34453;52.198;5.004;2023-05-02T13:12:38;102919.13;;;17.06;100.00